Saint Louis, Missouri
Traffic Map
Current Weather Conditions
Saint Louis, Missouri
Clear
Clear
-4°
Feels Like: -10°
Wind Chill: -10° Ceiling: Unl
Heat Index: -4° Visibility: 10mi
Dew Point: -14° Wind: 9mph
Humidity: 48% Direction: 360° (N)
Pressure: 30.58in Gusts: 0mph
Raw Report DataKCPS 052353Z 36008KT 10SM CLR M04/M14 A3058 RMK AO2 SLP362 T10441139 11033 21050 53010
Traffic Incident Summary
Active as of:
Severity:
Category:
InformationThere was an issue retrieving the traffic information for this location. Please try a different location or try again shortly.
Advertisements
Track Severe Weather on mobile